Time;durP1;ratioP1;P1;durP2;ratioP2;P2;SDS_P1;SDS_P2;PMS_P1;PMS_P2;Temp;Humidity;BMP_temperature;BMP_pressure;BME280_temperature;BME280_humidity;BME280_pressure;Samples;Min_cycle;Max_cycle;Signal;HPM_P1;HPM_P2
2022/01/08 00:01:33;;;;;;;7.93;6.13;;;;;;;;;;5075134;28;20447;-71
2022/01/08 00:04:00;;;;;;;9.07;7.00;;;;;;;;;;5075149;28;20443;-71
2022/01/08 00:06:27;;;;;;;9.03;7.30;;;;;;;;;;5075122;28;20488;-72
2022/01/08 00:08:55;;;;;;;9.63;6.47;;;;;;;;;;5075178;28;20458;-71
2022/01/08 00:11:25;;;;;;;9.50;7.40;;;;;;;;;;5075033;28;20526;-70
2022/01/08 00:13:52;;;;;;;12.17;7.10;;;;;;;;;;5074889;28;20886;-71
2022/01/08 00:16:19;;;;;;;10.43;7.00;;;;;;;;;;5075079;28;20973;-70
2022/01/08 00:18:48;;;;;;;10.87;7.80;;;;;;;;;;5074944;28;20487;-70
2022/01/08 00:21:15;;;;;;;10.17;7.17;;;;;;;;;;5074964;28;20452;-70
2022/01/08 00:23:42;;;;;;;13.40;8.00;;;;;;;;;;5074600;28;20975;-71
2022/01/08 00:26:09;;;;;;;10.43;7.70;;;;;;;;;;5074716;28;20476;-71
2022/01/08 00:28:36;;;;;;;12.20;8.57;;;;;;;;;;5074634;28;20804;-71
2022/01/08 00:31:04;;;;;;;10.53;7.47;;;;;;;;;;5074871;28;20539;-71
2022/01/08 00:33:31;;;;;;;13.47;7.93;;;;;;;;;;5074347;28;20456;-71
2022/01/08 00:36:00;;;;;;;9.77;6.27;;;;;;;;;;5074820;28;20969;-71
2022/01/08 00:38:28;;;;;;;12.60;6.73;;;;;;;;;;5073746;28;20833;-71
2022/01/08 00:40:55;;;;;;;9.60;7.27;;;;;;;;;;5074674;28;20447;-71
2022/01/08 00:43:22;;;;;;;11.10;6.80;;;;;;;;;;5074493;28;20971;-71
2022/01/08 00:45:49;;;;;;;8.73;6.37;;;;;;;;;;5074047;28;20479;-71
2022/01/08 00:48:16;;;;;;;11.17;7.73;;;;;;;;;;5074377;28;20484;-71
2022/01/08 00:50:43;;;;;;;9.23;7.27;;;;;;;;;;5074414;28;20453;-71
2022/01/08 00:53:12;;;;;;;18.90;7.63;;;;;;;;;;5074219;28;20543;-71
2022/01/08 00:55:39;;;;;;;13.10;7.10;;;;;;;;;;5073196;28;20483;-71
2022/01/08 00:58:07;;;;;;;10.17;6.70;;;;;;;;;;5074383;28;20444;-71
2022/01/08 01:00:34;;;;;;;11.70;7.57;;;;;;;;;;5074269;28;20496;-71
2022/01/08 01:03:01;;;;;;;10.80;6.57;;;;;;;;;;5074396;28;20452;-71
2022/01/08 01:05:29;;;;;;;8.07;6.37;;;;;;;;;;5073671;28;20464;-71
2022/01/08 01:07:56;;;;;;;11.17;6.90;;;;;;;;;;5073719;28;20497;-71
2022/01/08 01:10:24;;;;;;;9.13;6.00;;;;;;;;;;5073946;28;20452;-71
2022/01/08 01:12:51;;;;;;;8.20;6.27;;;;;;;;;;5074249;28;20960;-70
2022/01/08 01:15:19;;;;;;;8.30;5.90;;;;;;;;;;5073707;28;20491;-70
2022/01/08 01:17:47;;;;;;;5.37;4.77;;;;;;;;;;5073669;28;20448;-70
2022/01/08 01:20:16;;;;;;;10.73;6.33;;;;;;;;;;5074004;28;20968;-70
2022/01/08 01:22:51;;;;;;;7.50;5.50;;;;;;;;;;5073459;28;20468;-70
2022/01/08 01:25:23;;;;;;;7.07;5.87;;;;;;;;;;5073539;28;20471;-71
2022/01/08 01:28:02;;;;;;;7.00;4.90;;;;;;;;;;5073772;28;20591;-71
2022/01/08 01:30:55;;;;;;;8.27;6.10;;;;;;;;;;5073356;28;20470;-71
2022/01/08 01:41:53;;;;;;;10.50;6.03;;;;;;;;;;5073576;28;20454;-71
2022/01/08 01:47:06;;;;;;;7.80;4.50;;;;;;;;;;5073679;28;20493;-71
2022/01/08 01:49:34;;;;;;;9.50;6.70;;;;;;;;;;5073713;28;20957;-71
2022/01/08 01:52:02;;;;;;;7.67;4.80;;;;;;;;;;5073711;28;20982;-71
2022/01/08 01:54:30;;;;;;;6.83;5.23;;;;;;;;;;5073322;28;20458;-71
2022/01/08 01:56:58;;;;;;;5.27;4.47;;;;;;;;;;5073693;28;20829;-71
2022/01/08 01:59:26;;;;;;;7.20;5.43;;;;;;;;;;5073505;28;20456;-71
2022/01/08 02:01:53;;;;;;;7.33;5.20;;;;;;;;;;5073454;28;20456;-71
2022/01/08 02:04:21;;;;;;;5.47;4.90;;;;;;;;;;5073011;28;20452;-71
2022/01/08 02:06:48;;;;;;;5.67;4.70;;;;;;;;;;5073176;28;20495;-71
2022/01/08 02:09:15;;;;;;;12.70;6.00;;;;;;;;;;5073476;28;20799;-71
2022/01/08 02:11:59;;;;;;;17.90;8.47;;;;;;;;;;5073677;28;20453;-71
2022/01/08 02:14:28;;;;;;;7.43;6.13;;;;;;;;;;5073109;28;20459;-71
2022/01/08 02:16:55;;;;;;;7.40;5.03;;;;;;;;;;5073482;28;20459;-71
2022/01/08 02:19:23;;;;;;;7.57;6.20;;;;;;;;;;5073584;28;20444;-71
2022/01/08 02:21:52;;;;;;;15.80;9.90;;;;;;;;;;5073475;28;20445;-72
2022/01/08 02:24:19;;;;;;;12.07;7.47;;;;;;;;;;5072991;28;20534;-72
2022/01/08 02:26:46;;;;;;;8.60;4.60;;;;;;;;;;5072832;28;20476;-71
2022/01/08 02:29:14;;;;;;;5.00;4.37;;;;;;;;;;5073215;28;20463;-71
2022/01/08 02:31:41;;;;;;;7.20;5.07;;;;;;;;;;5073023;28;20502;-71
2022/01/08 02:34:08;;;;;;;9.97;5.93;;;;;;;;;;5073051;28;20463;-72
2022/01/08 02:36:36;;;;;;;10.17;4.40;;;;;;;;;;5072999;28;20464;-72
2022/01/08 02:39:04;;;;;;;7.37;4.20;;;;;;;;;;5072701;28;20550;-71
2022/01/08 02:41:31;;;;;;;10.03;5.53;;;;;;;;;;5072688;28;20889;-71
2022/01/08 02:43:58;;;;;;;7.77;4.40;;;;;;;;;;5072906;28;20451;-71
2022/01/08 02:46:28;;;;;;;6.33;5.33;;;;;;;;;;5072683;28;20506;-71
2022/01/08 02:48:55;;;;;;;9.47;5.23;;;;;;;;;;5073051;28;21004;-71
2022/01/08 02:51:22;;;;;;;9.10;4.50;;;;;;;;;;5073146;28;20823;-71
2022/01/08 02:53:49;;;;;;;8.90;4.77;;;;;;;;;;5072579;28;20447;-72
2022/01/08 02:56:17;;;;;;;7.27;4.13;;;;;;;;;;5072966;28;20996;-71
2022/01/08 02:58:44;;;;;;;7.20;5.17;;;;;;;;;;5072652;28;20459;-71
2022/01/08 03:01:12;;;;;;;12.37;7.80;;;;;;;;;;5072885;28;20945;-71
2022/01/08 03:03:39;;;;;;;10.27;6.10;;;;;;;;;;5072407;28;20966;-71
2022/01/08 03:06:06;;;;;;;7.60;4.90;;;;;;;;;;5072722;28;20486;-71
2022/01/08 03:08:33;;;;;;;5.60;4.40;;;;;;;;;;5072493;28;20487;-71
2022/01/08 03:11:00;;;;;;;7.40;5.37;;;;;;;;;;5072466;28;20454;-71
2022/01/08 03:13:29;;;;;;;9.60;5.20;;;;;;;;;;5072349;28;20447;-72
2022/01/08 03:15:56;;;;;;;9.80;4.63;;;;;;;;;;5072438;28;20487;-71
2022/01/08 03:18:23;;;;;;;8.20;5.00;;;;;;;;;;5074565;28;20443;-71
2022/01/08 03:21:01;;;;;;;5.50;4.57;;;;;;;;;;5075859;28;20458;-71
2022/01/08 03:23:36;;;;;;;5.73;4.23;;;;;;;;;;5075764;28;20490;-72
2022/01/08 03:26:04;;;;;;;9.63;4.93;;;;;;;;;;5076096;28;20478;-71
2022/01/08 03:28:32;;;;;;;5.13;4.13;;;;;;;;;;5075680;28;21017;-71
2022/01/08 03:30:59;;;;;;;6.00;4.10;;;;;;;;;;5076197;28;20454;-71
2022/01/08 03:33:27;;;;;;;8.43;5.20;;;;;;;;;;5075593;28;20439;-71
2022/01/08 03:35:54;;;;;;;6.70;5.00;;;;;;;;;;5075700;28;20999;-71
2022/01/08 03:38:22;;;;;;;7.17;4.40;;;;;;;;;;5075139;28;20798;-71
2022/01/08 03:40:49;;;;;;;5.50;3.93;;;;;;;;;;5075767;28;20921;-70
2022/01/08 03:43:16;;;;;;;5.27;3.93;;;;;;;;;;5075619;28;20443;-70
2022/01/08 03:45:45;;;;;;;6.17;4.17;;;;;;;;;;5075070;28;20470;-71
2022/01/08 03:48:26;;;;;;;18.00;7.90;;;;;;;;;;5075567;28;20483;-70
2022/01/08 03:50:53;;;;;;;8.83;5.47;;;;;;;;;;5075454;28;20447;-71
2022/01/08 03:53:20;;;;;;;5.50;4.50;;;;;;;;;;5075456;28;20458;-70
2022/01/08 03:55:47;;;;;;;7.30;5.00;;;;;;;;;;5075183;28;20478;-70
2022/01/08 03:58:14;;;;;;;8.80;5.30;;;;;;;;;;5075256;28;20944;-71
2022/01/08 04:00:41;;;;;;;8.87;5.30;;;;;;;;;;5075192;28;20534;-70
2022/01/08 04:03:10;;;;;;;7.00;4.43;;;;;;;;;;5075652;28;20451;-71
2022/01/08 04:05:37;;;;;;;8.40;5.53;;;;;;;;;;5074996;28;20476;-70
2022/01/08 04:08:04;;;;;;;9.97;5.10;;;;;;;;;;5075331;28;20496;-70
2022/01/08 04:10:31;;;;;;;8.83;5.10;;;;;;;;;;5075117;28;20448;-70
2022/01/08 04:13:04;;;;;;;10.47;6.13;;;;;;;;;;5075041;28;20454;-70
2022/01/08 04:15:37;;;;;;;27.63;14.03;;;;;;;;;;5074613;28;20475;-70
2022/01/08 04:18:04;;;;;;;11.73;6.40;;;;;;;;;;5075028;28;20447;-70
2022/01/08 04:20:36;;;;;;;7.93;5.70;;;;;;;;;;5074788;28;20452;-70
2022/01/08 04:23:03;;;;;;;8.00;5.03;;;;;;;;;;5075073;28;20820;-70
2022/01/08 04:25:31;;;;;;;4.80;4.27;;;;;;;;;;5074629;28;20474;-70
2022/01/08 04:27:58;;;;;;;7.37;4.90;;;;;;;;;;5074783;28;20488;-70
2022/01/08 04:30:25;;;;;;;7.00;5.20;;;;;;;;;;5073631;28;20490;-70
2022/01/08 04:32:52;;;;;;;8.77;5.83;;;;;;;;;;5074725;28;21043;-70
2022/01/08 04:35:19;;;;;;;5.63;4.03;;;;;;;;;;5074703;28;20464;-70
2022/01/08 04:37:48;;;;;;;12.37;6.47;;;;;;;;;;5074101;28;20956;-70
2022/01/08 04:40:15;;;;;;;11.30;5.60;;;;;;;;;;5074571;28;20448;-70
2022/01/08 04:42:42;;;;;;;7.57;5.47;;;;;;;;;;5074312;28;20456;-70
2022/01/08 04:45:10;;;;;;;10.00;5.40;;;;;;;;;;5073913;28;20482;-70
2022/01/08 04:47:39;;;;;;;7.00;4.60;;;;;;;;;;5074126;28;20875;-70
2022/01/08 04:50:06;;;;;;;17.37;8.90;;;;;;;;;;5074248;28;20479;-70
2022/01/08 04:52:33;;;;;;;18.20;7.10;;;;;;;;;;5074083;28;20446;-70
2022/01/08 04:55:02;;;;;;;12.73;5.23;;;;;;;;;;5073865;28;20476;-70
2022/01/08 04:57:30;;;;;;;11.70;5.47;;;;;;;;;;5074103;28;20467;-70
2022/01/08 04:59:57;;;;;;;9.33;5.17;;;;;;;;;;5074255;28;20459;-70
2022/01/08 05:02:24;;;;;;;7.30;5.20;;;;;;;;;;5073990;28;20443;-70
2022/01/08 05:04:51;;;;;;;10.13;5.03;;;;;;;;;;5073593;28;20549;-71
2022/01/08 05:07:18;;;;;;;21.50;12.03;;;;;;;;;;5073884;28;20451;-70
2022/01/08 05:09:45;;;;;;;7.47;4.87;;;;;;;;;;5073998;28;20496;-70
2022/01/08 05:12:14;;;;;;;4.93;4.20;;;;;;;;;;5073788;28;20459;-70
2022/01/08 05:14:42;;;;;;;8.03;3.90;;;;;;;;;;5073418;28;20459;-71
2022/01/08 05:17:09;;;;;;;7.20;5.17;;;;;;;;;;5073832;28;20538;-70
2022/01/08 05:19:42;;;;;;;4.00;3.60;;;;;;;;;;5073735;28;20951;-70
2022/01/08 05:22:17;;;;;;;9.67;5.93;;;;;;;;;;5073907;28;20462;-70
2022/01/08 05:24:44;;;;;;;5.87;4.27;;;;;;;;;;5073368;28;20474;-70
2022/01/08 05:27:15;;;;;;;4.90;3.80;;;;;;;;;;5073610;28;20492;-70
2022/01/08 05:29:44;;;;;;;8.97;4.50;;;;;;;;;;5073432;28;20859;-70
2022/01/08 05:32:16;;;;;;;5.80;3.50;;;;;;;;;;5073546;28;20462;-70
2022/01/08 05:34:43;;;;;;;8.43;3.43;;;;;;;;;;5073192;28;20467;-70
2022/01/08 05:37:10;;;;;;;6.30;3.33;;;;;;;;;;5073044;28;20448;-70
2022/01/08 05:39:38;;;;;;;6.30;4.30;;;;;;;;;;5073319;28;20462;-70
2022/01/08 05:42:05;;;;;;;4.00;3.60;;;;;;;;;;5073107;28;20451;-70
2022/01/08 05:44:32;;;;;;;7.00;4.07;;;;;;;;;;5072605;28;20448;-70
2022/01/08 05:47:01;;;;;;;4.53;3.40;;;;;;;;;;5073382;28;20452;-70
2022/01/08 05:49:28;;;;;;;3.20;2.87;;;;;;;;;;5073153;28;20480;-70
2022/01/08 05:51:55;;;;;;;3.80;2.90;;;;;;;;;;5073417;28;20470;-70
2022/01/08 05:54:22;;;;;;;7.00;3.77;;;;;;;;;;5072924;28;20462;-71
2022/01/08 05:56:50;;;;;;;4.17;3.27;;;;;;;;;;5073380;28;20792;-70
2022/01/08 05:59:18;;;;;;;8.23;3.20;;;;;;;;;;5073149;28;20502;-70
2022/01/08 06:01:45;;;;;;;4.73;3.37;;;;;;;;;;5073015;28;20456;-70
2022/01/08 06:04:13;;;;;;;41.90;16.53;;;;;;;;;;5073217;28;20940;-70
2022/01/08 06:06:40;;;;;;;10.40;8.50;;;;;;;;;;5073002;28;20770;-70
2022/01/08 06:09:08;;;;;;;33.13;15.17;;;;;;;;;;5073011;28;20494;-70
2022/01/08 06:11:35;;;;;;;5.80;3.87;;;;;;;;;;5073179;28;20794;-70
2022/01/08 06:14:02;;;;;;;10.60;5.30;;;;;;;;;;5073066;28;20462;-70
2022/01/08 06:16:34;;;;;;;4.67;3.50;;;;;;;;;;5072806;28;20479;-70
2022/01/08 06:19:02;;;;;;;6.23;3.93;;;;;;;;;;5072952;28;20542;-70
2022/01/08 06:21:30;;;;;;;8.23;4.43;;;;;;;;;;5072899;28;20443;-70
2022/01/08 06:23:58;;;;;;;6.83;3.17;;;;;;;;;;5072807;28;20447;-70
2022/01/08 06:26:25;;;;;;;5.17;2.87;;;;;;;;;;5072347;28;20501;-70
2022/01/08 06:28:52;;;;;;;8.07;5.27;;;;;;;;;;5072657;28;20992;-70
2022/01/08 06:31:19;;;;;;;9.07;4.70;;;;;;;;;;5072972;28;20956;-70
2022/01/08 06:33:46;;;;;;;7.30;4.20;;;;;;;;;;5072678;28;20451;-71
2022/01/08 06:36:14;;;;;;;10.70;6.07;;;;;;;;;;5072799;28;20835;-70
2022/01/08 06:38:42;;;;;;;9.07;4.97;;;;;;;;;;5072803;28;20855;-70
2022/01/08 06:41:09;;;;;;;9.67;4.73;;;;;;;;;;5072835;28;20451;-70
2022/01/08 06:43:36;;;;;;;4.50;3.87;;;;;;;;;;5072660;28;20812;-70
2022/01/08 06:46:03;;;;;;;6.00;3.80;;;;;;;;;;5072540;28;20475;-70
2022/01/08 06:48:30;;;;;;;4.00;3.13;;;;;;;;;;5072741;28;20483;-70
2022/01/08 06:50:58;;;;;;;11.10;4.67;;;;;;;;;;5072650;28;20471;-70
2022/01/08 06:53:25;;;;;;;10.80;3.83;;;;;;;;;;5074835;28;20470;-70
2022/01/08 06:55:53;;;;;;;4.87;2.90;;;;;;;;;;5076390;28;20479;-70
2022/01/08 06:58:21;;;;;;;8.13;4.47;;;;;;;;;;5076472;28;20455;-70
2022/01/08 07:00:48;;;;;;;8.10;4.10;;;;;;;;;;5076401;28;20508;-70
2022/01/08 07:03:15;;;;;;;8.40;4.43;;;;;;;;;;5076481;28;20443;-70
2022/01/08 07:05:43;;;;;;;5.40;3.90;;;;;;;;;;5075915;28;20490;-70
2022/01/08 07:08:10;;;;;;;7.80;4.17;;;;;;;;;;5076255;28;20458;-70
2022/01/08 07:10:37;;;;;;;6.93;3.37;;;;;;;;;;5076122;28;20463;-70
2022/01/08 07:13:06;;;;;;;5.77;4.10;;;;;;;;;;5076805;28;20547;-70
2022/01/08 07:15:33;;;;;;;5.73;3.60;;;;;;;;;;5075756;28;20475;-70
2022/01/08 07:18:00;;;;;;;6.53;3.70;;;;;;;;;;5076087;28;20450;-71
2022/01/08 07:20:27;;;;;;;3.80;3.43;;;;;;;;;;5076026;28;20447;-70
2022/01/08 07:22:54;;;;;;;4.47;3.87;;;;;;;;;;5076001;28;20455;-70
2022/01/08 07:25:21;;;;;;;8.00;3.70;;;;;;;;;;5075994;28;20475;-70
2022/01/08 07:27:49;;;;;;;11.20;3.50;;;;;;;;;;5075892;28;20452;-70
2022/01/08 07:30:17;;;;;;;11.40;5.13;;;;;;;;;;5075629;28;20497;-70
2022/01/08 07:32:45;;;;;;;185.37;56.70;;;;;;;;;;5075829;28;20458;-70
2022/01/08 07:35:14;;;;;;;87.37;34.20;;;;;;;;;;5075350;28;20842;-70
2022/01/08 07:37:43;;;;;;;8.27;4.27;;;;;;;;;;5075094;28;21057;-70
2022/01/08 07:40:10;;;;;;;4.13;2.77;;;;;;;;;;5075713;28;20463;-70
2022/01/08 07:42:38;;;;;;;6.73;3.77;;;;;;;;;;5075610;28;20470;-70
2022/01/08 07:45:05;;;;;;;5.93;2.83;;;;;;;;;;5075467;28;20475;-70
2022/01/08 07:47:34;;;;;;;5.30;3.10;;;;;;;;;;5075488;28;20451;-70
2022/01/08 07:50:01;;;;;;;3.93;3.23;;;;;;;;;;5075493;28;20491;-70
2022/01/08 07:52:28;;;;;;;4.10;3.43;;;;;;;;;;5075685;28;20843;-70
2022/01/08 07:54:55;;;;;;;4.00;3.50;;;;;;;;;;5075282;28;20814;-70
2022/01/08 07:57:22;;;;;;;4.00;3.40;;;;;;;;;;5075389;28;20452;-70
2022/01/08 07:59:50;;;;;;;8.13;3.40;;;;;;;;;;5068686;28;20458;-70
2022/01/08 08:02:17;;;;;;;4.10;2.87;;;;;;;;;;5073478;28;20453;-70
2022/01/08 08:04:46;;;;;;;8.43;3.63;;;;;;;;;;5073228;28;20482;-70
2022/01/08 08:07:13;;;;;;;9.40;4.30;;;;;;;;;;5073744;28;20455;-70
2022/01/08 08:09:41;;;;;;;8.20;3.67;;;;;;;;;;5073693;28;20488;-70
2022/01/08 08:12:08;;;;;;;7.47;4.20;;;;;;;;;;5073897;28;20517;-70
2022/01/08 08:14:35;;;;;;;23.63;11.27;;;;;;;;;;5073149;28;20477;-70
2022/01/08 08:17:02;;;;;;;14.77;8.70;;;;;;;;;;5073593;28;20459;-70
2022/01/08 08:19:30;;;;;;;5.23;3.40;;;;;;;;;;5073558;28;20451;-70
2022/01/08 08:21:58;;;;;;;7.47;4.37;;;;;;;;;;5073476;28;20447;-70
2022/01/08 08:24:25;;;;;;;8.60;3.03;;;;;;;;;;5073136;28;20444;-70
2022/01/08 08:26:53;;;;;;;5.30;3.47;;;;;;;;;;5073430;28;20462;-70
2022/01/08 08:29:20;;;;;;;3.50;3.10;;;;;;;;;;5073320;28;20575;-70
2022/01/08 08:31:47;;;;;;;3.13;2.83;;;;;;;;;;5073432;28;20455;-70
2022/01/08 08:34:14;;;;;;;6.00;3.93;;;;;;;;;;5073034;28;20451;-71
2022/01/08 08:36:41;;;;;;;3.70;3.30;;;;;;;;;;5072580;28;20889;-71
2022/01/08 08:39:10;;;;;;;5.57;3.40;;;;;;;;;;5073219;28;20443;-70
2022/01/08 08:41:37;;;;;;;6.83;4.13;;;;;;;;;;5073224;28;20452;-71
2022/01/08 08:44:04;;;;;;;10.27;5.53;;;;;;;;;;5073985;28;20910;-71
2022/01/08 08:46:32;;;;;;;9.67;5.93;;;;;;;;;;5068629;28;20482;-70
2022/01/08 08:48:59;;;;;;;12.03;6.60;;;;;;;;;;5073213;28;21026;-71
2022/01/08 08:51:26;;;;;;;6.63;5.00;;;;;;;;;;5073138;28;20466;-70
2022/01/08 08:53:53;;;;;;;6.07;4.50;;;;;;;;;;5072542;28;20479;-71
2022/01/08 08:56:21;;;;;;;8.30;5.30;;;;;;;;;;5072843;28;20472;-70
2022/01/08 08:58:49;;;;;;;6.30;4.47;;;;;;;;;;5072994;28;20460;-71
2022/01/08 09:01:16;;;;;;;10.33;4.30;;;;;;;;;;5072689;28;20543;-70
2022/01/08 09:03:43;;;;;;;10.00;5.63;;;;;;;;;;5072518;28;20460;-70
2022/01/08 09:06:10;;;;;;;13.43;5.73;;;;;;;;;;5072674;28;20475;-71
2022/01/08 09:08:38;;;;;;;7.27;4.00;;;;;;;;;;5072408;28;20455;-70
2022/01/08 09:11:05;;;;;;;4.77;3.70;;;;;;;;;;5072604;28;20578;-70
2022/01/08 09:13:33;;;;;;;5.63;4.00;;;;;;;;;;5072368;28;20452;-71
2022/01/08 09:16:00;;;;;;;4.33;3.90;;;;;;;;;;5071760;28;20853;-70
2022/01/08 09:18:28;;;;;;;5.40;4.20;;;;;;;;;;5072605;28;21116;-70
2022/01/08 09:20:55;;;;;;;6.13;3.43;;;;;;;;;;5072498;28;20452;-70
2022/01/08 09:23:22;;;;;;;3.83;3.03;;;;;;;;;;5072390;28;20466;-70
2022/01/08 09:25:49;;;;;;;6.73;3.93;;;;;;;;;;5071994;28;20479;-70
2022/01/08 09:28:16;;;;;;;6.60;3.97;;;;;;;;;;5072637;28;20809;-70
2022/01/08 09:30:45;;;;;;;7.30;4.47;;;;;;;;;;5071917;28;20491;-70
2022/01/08 09:33:12;;;;;;;6.37;4.50;;;;;;;;;;5072233;28;20929;-70
2022/01/08 09:35:40;;;;;;;6.60;4.20;;;;;;;;;;5071740;28;20475;-70
2022/01/08 09:38:07;;;;;;;4.03;3.43;;;;;;;;;;5071326;28;20549;-70
2022/01/08 09:40:34;;;;;;;4.53;3.40;;;;;;;;;;5072148;28;20443;-70
2022/01/08 09:43:02;;;;;;;5.33;3.80;;;;;;;;;;5071816;28;20684;-70
2022/01/08 09:45:29;;;;;;;4.20;3.40;;;;;;;;;;5071569;28;20482;-70
2022/01/08 09:47:57;;;;;;;4.00;3.40;;;;;;;;;;5072175;28;20452;-70
2022/01/08 09:50:24;;;;;;;7.20;4.30;;;;;;;;;;5071764;28;20491;-70
2022/01/08 09:52:57;;;;;;;6.40;3.17;;;;;;;;;;5071612;28;20459;-70
2022/01/08 09:55:25;;;;;;;4.23;2.50;;;;;;;;;;5071766;28;21059;-70
2022/01/08 09:57:52;;;;;;;4.40;2.97;;;;;;;;;;5071884;28;20546;-70
2022/01/08 10:00:19;;;;;;;5.83;3.13;;;;;;;;;;5071782;28;20473;-70
2022/01/08 10:02:47;;;;;;;9.27;4.30;;;;;;;;;;5071409;28;20458;-70
2022/01/08 10:05:16;;;;;;;7.37;4.37;;;;;;;;;;5071495;28;20476;-70
2022/01/08 10:07:44;;;;;;;5.03;2.80;;;;;;;;;;5071339;28;20465;-71
2022/01/08 10:10:12;;;;;;;3.43;1.87;;;;;;;;;;5071600;28;20605;-70
2022/01/08 10:12:45;;;;;;;10.83;2.60;;;;;;;;;;5071501;28;20451;-70
2022/01/08 10:17:58;;;;;;;2.83;1.70;;;;;;;;;;5072761;28;20426;-70
2022/01/08 10:20:31;;;;;;;2.40;1.80;;;;;;;;;;5072796;28;20455;-70
2022/01/08 10:23:11;;;;;;;2.37;1.83;;;;;;;;;;5072930;28;20455;-70
2022/01/08 10:25:38;;;;;;;3.53;2.40;;;;;;;;;;5072667;28;20525;-70
2022/01/08 10:28:06;;;;;;;3.70;2.70;;;;;;;;;;5074987;28;20463;-70
2022/01/08 10:30:33;;;;;;;4.33;2.33;;;;;;;;;;5076935;28;20497;-69
2022/01/08 10:33:01;;;;;;;3.43;2.70;;;;;;;;;;5077125;28;20444;-69
2022/01/08 10:35:47;;;;;;;2.73;2.00;;;;;;;;;;5076704;28;20494;-69
2022/01/08 10:38:15;;;;;;;2.33;1.87;;;;;;;;;;5076591;28;20448;-70
2022/01/08 10:40:43;;;;;;;2.00;1.40;;;;;;;;;;5076836;28;20451;-70
2022/01/08 10:43:23;;;;;;;2.00;1.47;;;;;;;;;;5076766;28;20541;-69
2022/01/08 10:45:50;;;;;;;7.00;1.80;;;;;;;;;;5076340;28;20579;-69
2022/01/08 10:48:25;;;;;;;1.50;1.27;;;;;;;;;;5076694;28;20454;-69
2022/01/08 10:50:52;;;;;;;1.90;1.30;;;;;;;;;;5076582;28;20987;-69
2022/01/08 10:53:21;;;;;;;2.43;1.67;;;;;;;;;;5076715;28;20455;-69
2022/01/08 10:55:48;;;;;;;2.80;1.40;;;;;;;;;;5076256;28;20497;-69
2022/01/08 10:58:17;;;;;;;2.30;2.03;;;;;;;;;;5076505;28;20459;-69
2022/01/08 11:00:44;;;;;;;1.77;1.43;;;;;;;;;;5076547;28;20452;-69
2022/01/08 11:03:11;;;;;;;3.47;1.70;;;;;;;;;;5076462;28;20952;-69
2022/01/08 11:05:53;;;;;;;3.67;1.87;;;;;;;;;;5076093;28;20471;-69
2022/01/08 11:08:22;;;;;;;3.23;2.00;;;;;;;;;;5076145;28;20451;-69
2022/01/08 11:10:49;;;;;;;7.90;2.80;;;;;;;;;;5076080;28;20491;-69
2022/01/08 11:13:18;;;;;;;3.47;2.53;;;;;;;;;;5076216;28;20447;-69
2022/01/08 11:15:51;;;;;;;2.10;1.60;;;;;;;;;;5075792;28;20498;-69
2022/01/08 11:18:19;;;;;;;2.53;1.40;;;;;;;;;;5076264;28;20455;-69
2022/01/08 11:20:47;;;;;;;2.00;1.80;;;;;;;;;;5076086;28;20443;-69
2022/01/08 11:23:15;;;;;;;1.90;1.57;;;;;;;;;;5076113;28;20448;-69
2022/01/08 11:25:46;;;;;;;4.40;2.73;;;;;;;;;;5075611;28;20490;-69
2022/01/08 11:28:14;;;;;;;1.87;1.20;;;;;;;;;;5075878;28;20451;-69
2022/01/08 11:30:41;;;;;;;1.90;1.50;;;;;;;;;;5075672;28;20509;-69
2022/01/08 11:33:14;;;;;;;1.53;1.30;;;;;;;;;;5075839;28;20447;-68
2022/01/08 11:35:43;;;;;;;1.47;1.33;;;;;;;;;;5075513;28;20505;-68
2022/01/08 11:38:11;;;;;;;1.57;1.20;;;;;;;;;;5074944;28;20809;-69
2022/01/08 11:40:38;;;;;;;2.67;1.40;;;;;;;;;;5075694;28;20460;-69
2022/01/08 11:43:08;;;;;;;1.97;1.23;;;;;;;;;;5075717;28;20455;-69
2022/01/08 11:45:36;;;;;;;2.03;1.47;;;;;;;;;;5075301;28;20475;-69
2022/01/08 11:48:06;;;;;;;1.97;1.77;;;;;;;;;;5075418;28;20458;-69
2022/01/08 11:50:34;;;;;;;2.23;1.80;;;;;;;;;;5075472;28;20489;-69
2022/01/08 11:53:17;;;;;;;11.20;4.23;;;;;;;;;;5075210;28;20818;-70
2022/01/08 11:55:45;;;;;;;11.70;5.73;;;;;;;;;;5074537;28;20839;-69
2022/01/08 11:58:18;;;;;;;2.50;2.30;;;;;;;;;;5075388;28;20458;-69
2022/01/08 12:00:49;;;;;;;2.17;1.77;;;;;;;;;;5075227;28;20578;-69
2022/01/08 12:03:20;;;;;;;1.97;1.53;;;;;;;;;;5075311;28;21008;-69
2022/01/08 12:05:47;;;;;;;1.80;1.40;;;;;;;;;;5075006;28;20471;-69
2022/01/08 12:08:17;;;;;;;1.70;1.57;;;;;;;;;;5075079;28;20491;-69
2022/01/08 12:10:56;;;;;;;1.87;1.60;;;;;;;;;;5074964;28;20487;-69
2022/01/08 12:13:38;;;;;;;2.50;1.80;;;;;;;;;;5075034;28;20979;-69
2022/01/08 12:16:06;;;;;;;2.90;2.13;;;;;;;;;;5067148;28;20486;-69
2022/01/08 12:18:48;;;;;;;2.70;2.20;;;;;;;;;;5054882;28;20791;-69
2022/01/08 12:21:30;;;;;;;1.90;1.47;;;;;;;;;;5053950;28;20950;-69
2022/01/08 12:23:59;;;;;;;12.23;6.27;;;;;;;;;;5053913;28;20458;-69
2022/01/08 12:26:39;;;;;;;2.23;1.93;;;;;;;;;;5054716;28;20477;-69
2022/01/08 12:29:07;;;;;;;2.60;2.00;;;;;;;;;;5054642;28;20514;-69
2022/01/08 12:31:41;;;;;;;2.00;1.60;;;;;;;;;;5054697;28;21106;-69
2022/01/08 12:34:29;;;;;;;2.50;2.20;;;;;;;;;;5054607;28;20559;-69
2022/01/08 12:36:57;;;;;;;2.70;1.83;;;;;;;;;;5054746;28;20453;-69
2022/01/08 12:39:25;;;;;;;2.50;1.70;;;;;;;;;;5054513;28;20449;-69
2022/01/08 12:42:07;;;;;;;5.20;1.60;;;;;;;;;;5054568;28;20510;-69
2022/01/08 12:44:35;;;;;;;3.67;1.73;;;;;;;;;;5054673;28;20448;-69
2022/01/08 12:47:03;;;;;;;6.33;1.90;;;;;;;;;;5054427;28;20452;-69
2022/01/08 12:49:30;;;;;;;16.13;3.60;;;;;;;;;;5053934;28;20448;-69
2022/01/08 12:52:08;;;;;;;3.40;2.10;;;;;;;;;;5053651;28;20499;-69
2022/01/08 12:54:36;;;;;;;5.03;2.50;;;;;;;;;;5053990;28;20454;-69
2022/01/08 12:57:05;;;;;;;4.87;2.60;;;;;;;;;;5054339;28;20463;-69
2022/01/08 12:59:34;;;;;;;2.93;2.30;;;;;;;;;;5054252;28;20449;-69
2022/01/08 13:02:01;;;;;;;8.13;3.10;;;;;;;;;;5054144;28;20449;-69
2022/01/08 13:04:29;;;;;;;5.47;3.10;;;;;;;;;;5053784;28;20456;-69
2022/01/08 13:06:56;;;;;;;2.27;2.03;;;;;;;;;;5054025;28;20453;-69
2022/01/08 13:09:23;;;;;;;4.90;2.80;;;;;;;;;;5053995;28;20808;-69
2022/01/08 13:11:51;;;;;;;5.00;2.43;;;;;;;;;;5053812;28;20484;-69
2022/01/08 13:14:19;;;;;;;2.77;2.50;;;;;;;;;;5053775;28;20457;-69
2022/01/08 13:16:48;;;;;;;2.07;1.33;;;;;;;;;;5053580;28;20496;-69
2022/01/08 13:19:16;;;;;;;4.00;2.63;;;;;;;;;;5053845;28;20456;-69
2022/01/08 13:21:45;;;;;;;3.17;2.87;;;;;;;;;;5053605;28;20976;-69
2022/01/08 13:24:14;;;;;;;3.67;2.63;;;;;;;;;;5053506;28;20449;-69
2022/01/08 13:26:42;;;;;;;3.53;3.00;;;;;;;;;;5053462;28;20473;-69
2022/01/08 13:29:20;;;;;;;3.57;3.03;;;;;;;;;;5053555;28;20825;-69
2022/01/08 13:31:48;;;;;;;3.30;2.80;;;;;;;;;;5053550;28;21019;-69
2022/01/08 13:34:15;;;;;;;2.53;2.27;;;;;;;;;;5053482;28;20456;-69
2022/01/08 13:36:56;;;;;;;4.93;3.00;;;;;;;;;;5053229;28;20851;-69
2022/01/08 13:39:27;;;;;;;3.90;2.80;;;;;;;;;;5053379;28;20448;-69
2022/01/08 13:42:04;;;;;;;3.73;2.40;;;;;;;;;;5053429;28;20464;-69
2022/01/08 13:44:31;;;;;;;5.33;2.53;;;;;;;;;;5053137;28;20451;-69
2022/01/08 13:46:58;;;;;;;4.57;2.80;;;;;;;;;;5053399;28;20453;-69
2022/01/08 13:49:26;;;;;;;3.93;2.50;;;;;;;;;;5053315;28;20449;-69
2022/01/08 13:51:54;;;;;;;11.03;3.43;;;;;;;;;;5053200;28;20488;-70
2022/01/08 13:54:33;;;;;;;4.27;2.17;;;;;;;;;;5054862;28;20456;-69
2022/01/08 13:57:11;;;;;;;3.20;2.10;;;;;;;;;;5071894;28;20808;-70
2022/01/08 13:59:38;;;;;;;3.40;2.23;;;;;;;;;;5071717;28;20451;-69
2022/01/08 14:02:05;;;;;;;2.80;2.27;;;;;;;;;;5071685;28;20709;-70
2022/01/08 14:04:32;;;;;;;2.93;1.87;;;;;;;;;;5071173;28;20455;-70
2022/01/08 14:06:59;;;;;;;3.17;2.03;;;;;;;;;;5071844;28;20456;-70
2022/01/08 14:09:28;;;;;;;4.27;2.67;;;;;;;;;;5071564;28;20894;-70
2022/01/08 14:12:09;;;;;;;4.00;3.23;;;;;;;;;;5071585;28;20487;-70
2022/01/08 14:14:40;;;;;;;2.97;2.67;;;;;;;;;;5071288;28;20462;-70
2022/01/08 14:17:15;;;;;;;3.87;2.50;;;;;;;;;;5071463;28;20455;-70
2022/01/08 14:19:42;;;;;;;3.70;2.50;;;;;;;;;;5071500;28;20798;-70
2022/01/08 14:22:09;;;;;;;5.30;3.63;;;;;;;;;;5071671;28;20454;-70
2022/01/08 14:24:39;;;;;;;7.40;5.10;;;;;;;;;;5071478;28;21162;-69
2022/01/08 14:27:07;;;;;;;7.87;5.60;;;;;;;;;;5071132;28;20451;-70
2022/01/08 14:29:35;;;;;;;8.60;4.67;;;;;;;;;;5070882;28;20464;-70
2022/01/08 14:32:03;;;;;;;6.30;4.07;;;;;;;;;;5071311;28;20491;-70
2022/01/08 14:34:30;;;;;;;11.03;7.80;;;;;;;;;;5071028;28;20828;-70
2022/01/08 14:36:58;;;;;;;9.33;5.40;;;;;;;;;;5071894;28;20456;-70
2022/01/08 14:39:40;;;;;;;24.00;11.80;;;;;;;;;;5072831;28;20452;-70
2022/01/08 14:42:08;;;;;;;32.47;15.70;;;;;;;;;;5072455;28;20498;-71
2022/01/08 14:44:35;;;;;;;21.43;10.17;;;;;;;;;;5072371;28;20456;-71
2022/01/08 14:47:03;;;;;;;30.43;12.87;;;;;;;;;;5072751;28;20467;-71
2022/01/08 14:49:30;;;;;;;30.70;15.90;;;;;;;;;;5072592;28;20456;-71
2022/01/08 14:51:57;;;;;;;29.77;12.30;;;;;;;;;;5072649;28;20498;-71
2022/01/08 14:54:27;;;;;;;17.40;7.30;;;;;;;;;;5072285;28;20843;-71
2022/01/08 14:56:56;;;;;;;24.93;14.27;;;;;;;;;;5072689;28;20819;-71
2022/01/08 14:59:23;;;;;;;27.80;13.67;;;;;;;;;;5072992;28;20452;-69
2022/01/08 15:01:51;;;;;;;26.20;12.73;;;;;;;;;;5072646;28;20811;-70
2022/01/08 15:04:18;;;;;;;28.63;11.70;;;;;;;;;;5072393;28;20451;-71